Terminal Aerodrome Forecast
Issued by NWS

Home | Current Version | Previous Version | Text Only | Print | Product List | Glossary On
Versions: 1 2 3 4 5 6 7 8 9 10 11 12 13 14 15 16
000
FTUS41 KGYX 282320
TAFLEB
TAF
KLEB 282320Z 2900/2924 VRB04KT P6SM BKN070
     FM290700 00000KT 2SM BR BKN002
     FM290900 00000KT 1/4SM FG VV001
     FM291300 VRB03KT P6SM FEW001 SCT250=

USA.gov is the U.S. government's official web portal to all federal, state and local government web resources and services.